sensor_id;sensor_type;location;lat;lon;timestamp;P1;durP1;ratioP1;P2;durP2;ratioP2
15816;SDS011;8009;50.070;8.232;2023-08-20T00:19:15;14.90;;;14.30;;
15816;SDS011;8009;50.070;8.232;2023-08-20T00:21:43;15.75;;;15.15;;
15816;SDS011;8009;50.070;8.232;2023-08-20T00:24:12;15.30;;;14.70;;
15816;SDS011;8009;50.070;8.232;2023-08-20T00:26:42;15.32;;;14.73;;
15816;SDS011;8009;50.070;8.232;2023-08-20T00:29:12;14.90;;;14.30;;
15816;SDS011;8009;50.070;8.232;2023-08-20T00:31:40;15.00;;;14.43;;
15816;SDS011;8009;50.070;8.232;2023-08-20T00:34:09;14.93;;;14.35;;
15816;SDS011;8009;50.070;8.232;2023-08-20T00:36:40;14.80;;;14.23;;
15816;SDS011;8009;50.070;8.232;2023-08-20T00:39:10;14.98;;;14.38;;
15816;SDS011;8009;50.070;8.232;2023-08-20T00:41:41;14.30;;;13.77;;
15816;SDS011;8009;50.070;8.232;2023-08-20T00:44:10;15.93;;;15.32;;
15816;SDS011;8009;50.070;8.232;2023-08-20T00:46:41;15.25;;;14.65;;
15816;SDS011;8009;50.070;8.232;2023-08-20T00:49:12;15.45;;;14.85;;
15816;SDS011;8009;50.070;8.232;2023-08-20T00:51:43;14.65;;;14.13;;
15816;SDS011;8009;50.070;8.232;2023-08-20T00:54:13;15.68;;;15.07;;
15816;SDS011;8009;50.070;8.232;2023-08-20T00:56:41;15.15;;;14.55;;
15816;SDS011;8009;50.070;8.232;2023-08-20T00:59:10;15.23;;;14.63;;
15816;SDS011;8009;50.070;8.232;2023-08-20T01:01:41;15.38;;;14.77;;
15816;SDS011;8009;50.070;8.232;2023-08-20T01:04:09;14.65;;;14.10;;
15816;SDS011;8009;50.070;8.232;2023-08-20T01:06:39;15.30;;;14.70;;
15816;SDS011;8009;50.070;8.232;2023-08-20T01:09:23;14.60;;;14.05;;
15816;SDS011;8009;50.070;8.232;2023-08-20T01:12:02;14.98;;;14.38;;
15816;SDS011;8009;50.070;8.232;2023-08-20T01:14:31;15.35;;;14.75;;
15816;SDS011;8009;50.070;8.232;2023-08-20T01:16:59;15.95;;;15.35;;
15816;SDS011;8009;50.070;8.232;2023-08-20T01:19:28;15.63;;;15.02;;
15816;SDS011;8009;50.070;8.232;2023-08-20T01:22:04;16.15;;;15.55;;
15816;SDS011;8009;50.070;8.232;2023-08-20T01:24:44;15.45;;;14.85;;
15816;SDS011;8009;50.070;8.232;2023-08-20T01:27:28;15.68;;;15.07;;
15816;SDS011;8009;50.070;8.232;2023-08-20T01:30:10;15.77;;;15.18;;
15816;SDS011;8009;50.070;8.232;2023-08-20T01:32:40;15.82;;;15.23;;
15816;SDS011;8009;50.070;8.232;2023-08-20T01:35:11;16.35;;;15.75;;
15816;SDS011;8009;50.070;8.232;2023-08-20T01:37:40;16.65;;;16.05;;
15816;SDS011;8009;50.070;8.232;2023-08-20T01:40:08;16.02;;;15.43;;
15816;SDS011;8009;50.070;8.232;2023-08-20T01:42:37;15.80;;;15.20;;
15816;SDS011;8009;50.070;8.232;2023-08-20T03:55:26;22.33;;;21.45;;
15816;SDS011;8009;50.070;8.232;2023-08-20T03:57:55;24.52;;;23.60;;
15816;SDS011;8009;50.070;8.232;2023-08-20T04:00:23;23.85;;;22.95;;
15816;SDS011;8009;50.070;8.232;2023-08-20T04:06:15;24.00;;;23.10;;
15816;SDS011;8009;50.070;8.232;2023-08-20T04:08:43;25.30;;;24.30;;
15816;SDS011;8009;50.070;8.232;2023-08-20T04:11:14;28.10;;;27.00;;
15816;SDS011;8009;50.070;8.232;2023-08-20T04:13:42;32.55;;;31.25;;
15816;SDS011;8009;50.070;8.232;2023-08-20T04:16:10;29.98;;;28.77;;
15816;SDS011;8009;50.070;8.232;2023-08-20T04:18:39;28.30;;;27.20;;
15816;SDS011;8009;50.070;8.232;2023-08-20T04:21:07;28.38;;;27.27;;
15816;SDS011;8009;50.070;8.232;2023-08-20T04:23:36;29.23;;;28.13;;
15816;SDS011;8009;50.070;8.232;2023-08-20T04:26:04;28.80;;;27.70;;
15816;SDS011;8009;50.070;8.232;2023-08-20T04:28:35;27.73;;;26.63;;
15816;SDS011;8009;50.070;8.232;2023-08-20T04:31:03;26.20;;;25.10;;
15816;SDS011;8009;50.070;8.232;2023-08-20T04:33:32;26.90;;;25.80;;
15816;SDS011;8009;50.070;8.232;2023-08-20T04:36:00;27.50;;;26.42;;
15816;SDS011;8009;50.070;8.232;2023-08-20T04:38:28;27.63;;;26.52;;
15816;SDS011;8009;50.070;8.232;2023-08-20T04:40:57;28.40;;;27.30;;
15816;SDS011;8009;50.070;8.232;2023-08-20T04:43:25;30.15;;;28.95;;
15816;SDS011;8009;50.070;8.232;2023-08-20T04:45:56;28.08;;;26.98;;
15816;SDS011;8009;50.070;8.232;2023-08-20T04:48:24;26.35;;;25.35;;
15816;SDS011;8009;50.070;8.232;2023-08-20T04:50:53;27.40;;;26.30;;
15816;SDS011;8009;50.070;8.232;2023-08-20T04:53:21;27.70;;;26.60;;
15816;SDS011;8009;50.070;8.232;2023-08-20T04:55:49;29.63;;;28.42;;
15816;SDS011;8009;50.070;8.232;2023-08-20T04:58:20;29.92;;;28.73;;
15816;SDS011;8009;50.070;8.232;2023-08-20T05:00:48;34.65;;;33.25;;
15816;SDS011;8009;50.070;8.232;2023-08-20T05:03:19;32.75;;;31.45;;
15816;SDS011;8009;50.070;8.232;2023-08-20T05:05:48;29.23;;;28.13;;
15816;SDS011;8009;50.070;8.232;2023-08-20T05:08:17;26.20;;;25.20;;
15816;SDS011;8009;50.070;8.232;2023-08-20T05:10:45;28.02;;;26.92;;
15816;SDS011;8009;50.070;8.232;2023-08-20T05:13:13;22.98;;;22.08;;
15816;SDS011;8009;50.070;8.232;2023-08-20T05:15:42;19.00;;;18.30;;
15816;SDS011;8009;50.070;8.232;2023-08-20T05:18:10;18.00;;;17.30;;
15816;SDS011;8009;50.070;8.232;2023-08-20T05:20:42;16.65;;;16.05;;
15816;SDS011;8009;50.070;8.232;2023-08-20T05:23:10;15.65;;;15.05;;
15816;SDS011;8009;50.070;8.232;2023-08-20T05:25:39;15.82;;;15.23;;
15816;SDS011;8009;50.070;8.232;2023-08-20T05:28:08;17.80;;;17.10;;
15816;SDS011;8009;50.070;8.232;2023-08-20T05:30:37;19.98;;;19.17;;
15816;SDS011;8009;50.070;8.232;2023-08-20T05:33:05;21.10;;;20.30;;
15816;SDS011;8009;50.070;8.232;2023-08-20T05:35:33;21.50;;;20.70;;
15816;SDS011;8009;50.070;8.232;2023-08-20T05:38:04;23.17;;;22.27;;
15816;SDS011;8009;50.070;8.232;2023-08-20T05:40:32;24.80;;;23.80;;
15816;SDS011;8009;50.070;8.232;2023-08-20T05:43:01;25.55;;;24.55;;
15816;SDS011;8009;50.070;8.232;2023-08-20T05:45:29;26.42;;;25.42;;
15816;SDS011;8009;50.070;8.232;2023-08-20T05:47:58;26.08;;;25.08;;
15816;SDS011;8009;50.070;8.232;2023-08-20T05:50:26;30.17;;;28.98;;
15816;SDS011;8009;50.070;8.232;2023-08-20T05:52:54;28.77;;;27.65;;
15816;SDS011;8009;50.070;8.232;2023-08-20T05:55:25;29.75;;;28.55;;
15816;SDS011;8009;50.070;8.232;2023-08-20T05:57:54;32.33;;;31.02;;
15816;SDS011;8009;50.070;8.232;2023-08-20T06:00:22;50.63;;;48.58;;
15816;SDS011;8009;50.070;8.232;2023-08-20T06:02:50;51.63;;;49.53;;
15816;SDS011;8009;50.070;8.232;2023-08-20T06:05:18;52.45;;;50.35;;
15816;SDS011;8009;50.070;8.232;2023-08-20T06:07:47;45.03;;;43.22;;
15816;SDS011;8009;50.070;8.232;2023-08-20T06:10:15;45.83;;;44.00;;
15816;SDS011;8009;50.070;8.232;2023-08-20T06:12:47;47.17;;;45.30;;
15816;SDS011;8009;50.070;8.232;2023-08-20T06:15:16;47.58;;;45.67;;
15816;SDS011;8009;50.070;8.232;2023-08-20T06:17:44;46.70;;;44.83;;
15816;SDS011;8009;50.070;8.232;2023-08-20T06:20:12;49.65;;;47.65;;
15816;SDS011;8009;50.070;8.232;2023-08-20T06:22:43;48.22;;;46.33;;
15816;SDS011;8009;50.070;8.232;2023-08-20T06:25:12;51.63;;;49.53;;
15816;SDS011;8009;50.070;8.232;2023-08-20T06:27:41;49.55;;;47.58;;
15816;SDS011;8009;50.070;8.232;2023-08-20T06:30:12;49.33;;;47.33;;
15816;SDS011;8009;50.070;8.232;2023-08-20T06:32:41;50.60;;;48.58;;
15816;SDS011;8009;50.070;8.232;2023-08-20T06:35:12;61.22;;;58.58;;
15816;SDS011;8009;50.070;8.232;2023-08-20T06:37:41;50.13;;;48.10;;
15816;SDS011;8009;50.070;8.232;2023-08-20T06:40:14;49.88;;;47.85;;
15816;SDS011;8009;50.070;8.232;2023-08-20T06:42:42;49.25;;;47.28;;
15816;SDS011;8009;50.070;8.232;2023-08-20T06:45:13;46.65;;;44.80;;
15816;SDS011;8009;50.070;8.232;2023-08-20T06:47:41;46.88;;;45.03;;
15816;SDS011;8009;50.070;8.232;2023-08-20T06:50:10;47.65;;;45.75;;
15816;SDS011;8009;50.070;8.232;2023-08-20T06:52:38;46.75;;;44.88;;
15816;SDS011;8009;50.070;8.232;2023-08-20T06:55:07;47.78;;;45.85;;
15816;SDS011;8009;50.070;8.232;2023-08-20T06:57:36;46.45;;;44.60;;
15816;SDS011;8009;50.070;8.232;2023-08-20T07:00:05;45.05;;;43.25;;
15816;SDS011;8009;50.070;8.232;2023-08-20T07:02:37;43.97;;;42.22;;
15816;SDS011;8009;50.070;8.232;2023-08-20T07:05:06;42.00;;;40.30;;
15816;SDS011;8009;50.070;8.232;2023-08-20T07:07:35;40.45;;;38.85;;
15816;SDS011;8009;50.070;8.232;2023-08-20T07:10:05;41.28;;;39.65;;
15816;SDS011;8009;50.070;8.232;2023-08-20T07:12:44;39.45;;;37.88;;
15816;SDS011;8009;50.070;8.232;2023-08-20T07:15:14;37.53;;;36.05;;
15816;SDS011;8009;50.070;8.232;2023-08-20T07:17:45;43.58;;;41.83;;
15816;SDS011;8009;50.070;8.232;2023-08-20T07:20:13;35.45;;;34.03;;
15816;SDS011;8009;50.070;8.232;2023-08-20T07:22:41;35.75;;;34.33;;
15816;SDS011;8009;50.070;8.232;2023-08-20T07:25:10;36.95;;;35.47;;
15816;SDS011;8009;50.070;8.232;2023-08-20T07:27:38;34.97;;;33.58;;
15816;SDS011;8009;50.070;8.232;2023-08-20T07:30:08;31.58;;;30.35;;
15816;SDS011;8009;50.070;8.232;2023-08-20T07:32:37;33.13;;;31.83;;
15816;SDS011;8009;50.070;8.232;2023-08-20T07:35:08;30.83;;;29.60;;
15816;SDS011;8009;50.070;8.232;2023-08-20T07:37:36;31.08;;;29.85;;
15816;SDS011;8009;50.070;8.232;2023-08-20T07:40:02;31.67;;;30.42;;
15816;SDS011;8009;50.070;8.232;2023-08-20T07:42:31;30.60;;;29.40;;
15816;SDS011;8009;50.070;8.232;2023-08-20T07:45:00;32.63;;;31.35;;
15816;SDS011;8009;50.070;8.232;2023-08-20T07:47:28;29.63;;;28.45;;
15816;SDS011;8009;50.070;8.232;2023-08-20T07:49:57;28.05;;;26.95;;
15816;SDS011;8009;50.070;8.232;2023-08-20T07:52:33;29.17;;;28.02;;
15816;SDS011;8009;50.070;8.232;2023-08-20T07:55:02;24.45;;;23.35;;
15816;SDS011;8009;50.070;8.232;2023-08-20T07:57:38;23.50;;;22.60;;
15816;SDS011;8009;50.070;8.232;2023-08-20T08:00:13;25.88;;;24.83;;
15816;SDS011;8009;50.070;8.232;2023-08-20T08:02:42;26.92;;;25.83;;
15816;SDS011;8009;50.070;8.232;2023-08-20T08:07:52;18.10;;;17.40;;
15816;SDS011;8009;50.070;8.232;2023-08-20T08:10:21;18.00;;;17.30;;
15816;SDS011;8009;50.070;8.232;2023-08-20T08:12:50;19.30;;;18.60;;
15816;SDS011;8009;50.070;8.232;2023-08-20T08:17:54;19.85;;;19.10;;
15816;SDS011;8009;50.070;8.232;2023-08-20T08:23:35;18.77;;;18.08;;
15816;SDS011;8009;50.070;8.232;2023-08-20T08:26:06;18.63;;;17.92;;
15816;SDS011;8009;50.070;8.232;2023-08-20T08:28:34;20.63;;;19.83;;
15816;SDS011;8009;50.070;8.232;2023-08-20T08:31:05;20.02;;;19.23;;
15816;SDS011;8009;50.070;8.232;2023-08-20T08:33:34;19.30;;;18.60;;
15816;SDS011;8009;50.070;8.232;2023-08-20T08:36:02;16.75;;;16.15;;
15816;SDS011;8009;50.070;8.232;2023-08-20T08:38:31;15.30;;;14.70;;
15816;SDS011;8009;50.070;8.232;2023-08-20T08:41:03;14.40;;;13.90;;
15816;SDS011;8009;50.070;8.232;2023-08-20T08:43:38;15.15;;;14.55;;
15816;SDS011;8009;50.070;8.232;2023-08-20T08:46:07;14.45;;;13.95;;
15816;SDS011;8009;50.070;8.232;2023-08-20T08:48:42;12.85;;;12.35;;
15816;SDS011;8009;50.070;8.232;2023-08-20T08:51:12;12.93;;;12.43;;
15816;SDS011;8009;50.070;8.232;2023-08-20T08:53:41;13.30;;;12.80;;
15816;SDS011;8009;50.070;8.232;2023-08-20T08:56:14;14.15;;;13.65;;
15816;SDS011;8009;50.070;8.232;2023-08-20T08:58:42;12.85;;;12.35;;
15816;SDS011;8009;50.070;8.232;2023-08-20T09:01:10;14.07;;;13.57;;
15816;SDS011;8009;50.070;8.232;2023-08-20T09:03:39;21.98;;;21.13;;
15816;SDS011;8009;50.070;8.232;2023-08-20T09:06:08;20.27;;;19.50;;
15816;SDS011;8009;50.070;8.232;2023-08-20T09:08:37;17.13;;;16.48;;
15816;SDS011;8009;50.070;8.232;2023-08-20T09:11:05;22.98;;;22.08;;
15816;SDS011;8009;50.070;8.232;2023-08-20T09:13:36;19.50;;;18.75;;
15816;SDS011;8009;50.070;8.232;2023-08-20T09:16:06;18.20;;;17.50;;
15816;SDS011;8009;50.070;8.232;2023-08-20T09:18:37;25.08;;;24.10;;
15816;SDS011;8009;50.070;8.232;2023-08-20T09:21:07;25.45;;;24.45;;
15816;SDS011;8009;50.070;8.232;2023-08-20T09:23:36;19.17;;;18.48;;
15816;SDS011;8009;50.070;8.232;2023-08-20T09:26:06;16.08;;;15.48;;
15816;SDS011;8009;50.070;8.232;2023-08-20T09:31:36;11.98;;;11.57;;
15816;SDS011;8009;50.070;8.232;2023-08-20T09:34:11;14.48;;;13.98;;
15816;SDS011;8009;50.070;8.232;2023-08-20T09:36:40;13.35;;;12.85;;
15816;SDS011;8009;50.070;8.232;2023-08-20T09:39:12;24.48;;;23.52;;
15816;SDS011;8009;50.070;8.232;2023-08-20T09:41:53;21.95;;;21.13;;
15816;SDS011;8009;50.070;8.232;2023-08-20T09:50:45;25.70;;;24.70;;
15816;SDS011;8009;50.070;8.232;2023-08-20T09:53:17;29.25;;;28.08;;
15816;SDS011;8009;50.070;8.232;2023-08-20T09:55:51;16.05;;;15.45;;
15816;SDS011;8009;50.070;8.232;2023-08-20T10:01:31;14.30;;;13.80;;
15816;SDS011;8009;50.070;8.232;2023-08-20T10:04:00;14.82;;;14.27;;
15816;SDS011;8009;50.070;8.232;2023-08-20T10:06:40;14.57;;;14.05;;
15816;SDS011;8009;50.070;8.232;2023-08-20T10:15:28;15.77;;;15.18;;
15816;SDS011;8009;50.070;8.232;2023-08-20T10:17:57;14.63;;;14.10;;
15816;SDS011;8009;50.070;8.232;2023-08-20T10:20:26;15.95;;;15.27;;
15816;SDS011;8009;50.070;8.232;2023-08-20T10:26:10;18.00;;;17.30;;
15816;SDS011;8009;50.070;8.232;2023-08-20T10:28:40;21.83;;;21.00;;
15816;SDS011;8009;50.070;8.232;2023-08-20T10:31:10;20.20;;;19.42;;
15816;SDS011;8009;50.070;8.232;2023-08-20T10:33:48;25.92;;;24.92;;
15816;SDS011;8009;50.070;8.232;2023-08-20T10:58:36;49.42;;;47.35;;
15816;SDS011;8009;50.070;8.232;2023-08-20T11:01:15;32.25;;;30.95;;
15816;SDS011;8009;50.070;8.232;2023-08-20T11:03:45;29.13;;;27.98;;
15816;SDS011;8009;50.070;8.232;2023-08-20T11:06:14;26.30;;;25.30;;
15816;SDS011;8009;50.070;8.232;2023-08-20T11:08:43;28.10;;;27.00;;
15816;SDS011;8009;50.070;8.232;2023-08-20T11:11:12;28.20;;;27.10;;
15816;SDS011;8009;50.070;8.232;2023-08-20T11:13:44;28.95;;;27.80;;
15816;SDS011;8009;50.070;8.232;2023-08-20T11:16:12;30.40;;;29.17;;
15816;SDS011;8009;50.070;8.232;2023-08-20T11:18:40;33.90;;;32.50;;
15816;SDS011;8009;50.070;8.232;2023-08-20T11:21:13;30.08;;;28.88;;
15816;SDS011;8009;50.070;8.232;2023-08-20T11:23:41;27.60;;;26.50;;
15816;SDS011;8009;50.070;8.232;2023-08-20T11:29:24;27.27;;;26.20;;
15816;SDS011;8009;50.070;8.232;2023-08-20T11:31:56;29.30;;;28.15;;
15816;SDS011;8009;50.070;8.232;2023-08-20T11:34:28;54.08;;;51.78;;
15816;SDS011;8009;50.070;8.232;2023-08-20T11:36:59;29.92;;;28.73;;
15816;SDS011;8009;50.070;8.232;2023-08-20T11:39:28;25.15;;;24.17;;
15816;SDS011;8009;50.070;8.232;2023-08-20T11:41:59;25.05;;;24.08;;
15816;SDS011;8009;50.070;8.232;2023-08-20T11:44:45;24.00;;;23.10;;
15816;SDS011;8009;50.070;8.232;2023-08-20T11:47:14;21.70;;;20.88;;
15816;SDS011;8009;50.070;8.232;2023-08-20T11:49:43;25.70;;;24.70;;
15816;SDS011;8009;50.070;8.232;2023-08-20T11:52:12;24.42;;;23.48;;
15816;SDS011;8009;50.070;8.232;2023-08-20T11:54:42;24.85;;;23.85;;
15816;SDS011;8009;50.070;8.232;2023-08-20T11:57:10;26.73;;;25.73;;
15816;SDS011;8009;50.070;8.232;2023-08-20T11:59:39;22.33;;;21.42;;
15816;SDS011;8009;50.070;8.232;2023-08-20T12:02:10;18.80;;;18.10;;
15816;SDS011;8009;50.070;8.232;2023-08-20T12:04:54;21.75;;;20.92;;
15816;SDS011;8009;50.070;8.232;2023-08-20T12:07:27;19.63;;;18.88;;
15816;SDS011;8009;50.070;8.232;2023-08-20T12:09:58;18.77;;;18.08;;
15816;SDS011;8009;50.070;8.232;2023-08-20T12:12:47;57.55;;;55.05;;
15816;SDS011;8009;50.070;8.232;2023-08-20T12:15:17;31.75;;;30.52;;
15816;SDS011;8009;50.070;8.232;2023-08-20T12:17:58;30.05;;;28.85;;
15816;SDS011;8009;50.070;8.232;2023-08-20T12:20:30;28.83;;;27.73;;
15816;SDS011;8009;50.070;8.232;2023-08-20T12:22:59;25.42;;;24.42;;
15816;SDS011;8009;50.070;8.232;2023-08-20T12:25:30;27.58;;;26.48;;
15816;SDS011;8009;50.070;8.232;2023-08-20T12:28:00;25.90;;;24.90;;
15816;SDS011;8009;50.070;8.232;2023-08-20T12:30:29;22.75;;;21.88;;
15816;SDS011;8009;50.070;8.232;2023-08-20T12:33:01;26.23;;;25.13;;
15816;SDS011;8009;50.070;8.232;2023-08-20T12:35:31;24.55;;;23.63;;
15816;SDS011;8009;50.070;8.232;2023-08-20T12:37:59;25.88;;;24.88;;
15816;SDS011;8009;50.070;8.232;2023-08-20T12:40:28;28.05;;;26.95;;
15816;SDS011;8009;50.070;8.232;2023-08-20T12:42:56;28.42;;;27.23;;
15816;SDS011;8009;50.070;8.232;2023-08-20T12:45:25;27.83;;;26.73;;
15816;SDS011;8009;50.070;8.232;2023-08-20T12:47:53;29.38;;;28.23;;
15816;SDS011;8009;50.070;8.232;2023-08-20T12:50:25;29.90;;;28.70;;
15816;SDS011;8009;50.070;8.232;2023-08-20T12:52:53;28.95;;;27.80;;
15816;SDS011;8009;50.070;8.232;2023-08-20T12:55:22;29.92;;;28.73;;
15816;SDS011;8009;50.070;8.232;2023-08-20T12:57:54;29.50;;;28.35;;
15816;SDS011;8009;50.070;8.232;2023-08-20T13:00:24;27.55;;;26.48;;
15816;SDS011;8009;50.070;8.232;2023-08-20T13:02:54;29.10;;;28.00;;
15816;SDS011;8009;50.070;8.232;2023-08-20T13:05:26;28.75;;;27.63;;
15816;SDS011;8009;50.070;8.232;2023-08-20T13:07:55;30.15;;;28.95;;
15816;SDS011;8009;50.070;8.232;2023-08-20T13:10:27;30.08;;;28.88;;
15816;SDS011;8009;50.070;8.232;2023-08-20T13:12:59;29.50;;;28.33;;
15816;SDS011;8009;50.070;8.232;2023-08-20T13:15:29;29.33;;;28.20;;
15816;SDS011;8009;50.070;8.232;2023-08-20T13:17:58;28.92;;;27.83;;
15816;SDS011;8009;50.070;8.232;2023-08-20T13:20:30;27.85;;;26.75;;
15816;SDS011;8009;50.070;8.232;2023-08-20T13:22:58;27.90;;;26.80;;
15816;SDS011;8009;50.070;8.232;2023-08-20T13:25:26;29.80;;;28.60;;
15816;SDS011;8009;50.070;8.232;2023-08-20T13:27:55;29.95;;;28.77;;
15816;SDS011;8009;50.070;8.232;2023-08-20T13:30:23;27.52;;;26.42;;
15816;SDS011;8009;50.070;8.232;2023-08-20T13:32:51;30.65;;;29.45;;
15816;SDS011;8009;50.070;8.232;2023-08-20T13:35:20;30.50;;;29.30;;
15816;SDS011;8009;50.070;8.232;2023-08-20T13:37:51;30.10;;;28.90;;
15816;SDS011;8009;50.070;8.232;2023-08-20T13:40:20;25.13;;;24.13;;
15816;SDS011;8009;50.070;8.232;2023-08-20T13:42:48;29.30;;;28.17;;
15816;SDS011;8009;50.070;8.232;2023-08-20T13:45:17;27.05;;;25.98;;
15816;SDS011;8009;50.070;8.232;2023-08-20T13:47:45;28.83;;;27.73;;
15816;SDS011;8009;50.070;8.232;2023-08-20T13:50:16;29.05;;;27.85;;
15816;SDS011;8009;50.070;8.232;2023-08-20T13:52:44;30.23;;;29.02;;
15816;SDS011;8009;50.070;8.232;2023-08-20T13:55:15;24.45;;;23.52;;
15816;SDS011;8009;50.070;8.232;2023-08-20T13:57:44;26.08;;;25.00;;
15816;SDS011;8009;50.070;8.232;2023-08-20T14:00:13;27.88;;;26.77;;
15816;SDS011;8009;50.070;8.232;2023-08-20T14:02:41;28.15;;;27.05;;
15816;SDS011;8009;50.070;8.232;2023-08-20T14:05:12;27.38;;;26.30;;
15816;SDS011;8009;50.070;8.232;2023-08-20T14:07:41;24.70;;;23.70;;
15816;SDS011;8009;50.070;8.232;2023-08-20T14:10:17;24.33;;;23.40;;
15816;SDS011;8009;50.070;8.232;2023-08-20T14:12:48;25.73;;;24.73;;
15816;SDS011;8009;50.070;8.232;2023-08-20T14:15:17;27.08;;;25.98;;
15816;SDS011;8009;50.070;8.232;2023-08-20T14:17:46;27.13;;;26.08;;
15816;SDS011;8009;50.070;8.232;2023-08-20T14:20:16;25.27;;;24.27;;
15816;SDS011;8009;50.070;8.232;2023-08-20T14:22:45;26.75;;;25.75;;
15816;SDS011;8009;50.070;8.232;2023-08-20T14:25:13;23.98;;;23.08;;
15816;SDS011;8009;50.070;8.232;2023-08-20T14:27:45;28.33;;;27.20;;
15816;SDS011;8009;50.070;8.232;2023-08-20T14:30:14;30.05;;;28.85;;
15816;SDS011;8009;50.070;8.232;2023-08-20T14:32:42;28.98;;;27.85;;
15816;SDS011;8009;50.070;8.232;2023-08-20T14:35:14;28.08;;;26.98;;
15816;SDS011;8009;50.070;8.232;2023-08-20T14:37:43;31.23;;;30.00;;
15816;SDS011;8009;50.070;8.232;2023-08-20T14:40:13;28.70;;;27.50;;
15816;SDS011;8009;50.070;8.232;2023-08-20T14:42:41;27.92;;;26.83;;
15816;SDS011;8009;50.070;8.232;2023-08-20T14:45:12;24.70;;;23.75;;
15816;SDS011;8009;50.070;8.232;2023-08-20T14:47:41;24.63;;;23.63;;
15816;SDS011;8009;50.070;8.232;2023-08-20T14:50:09;26.83;;;25.83;;
15816;SDS011;8009;50.070;8.232;2023-08-20T14:52:38;26.55;;;25.55;;
15816;SDS011;8009;50.070;8.232;2023-08-20T14:55:07;25.52;;;24.52;;
15816;SDS011;8009;50.070;8.232;2023-08-20T14:57:36;29.33;;;28.23;;
15816;SDS011;8009;50.070;8.232;2023-08-20T15:00:05;27.02;;;25.92;;
15816;SDS011;8009;50.070;8.232;2023-08-20T15:02:41;26.60;;;25.60;;
15816;SDS011;8009;50.070;8.232;2023-08-20T15:05:10;28.00;;;26.90;;
15816;SDS011;8009;50.070;8.232;2023-08-20T15:07:39;24.15;;;23.25;;
15816;SDS011;8009;50.070;8.232;2023-08-20T15:10:08;24.33;;;23.42;;
15816;SDS011;8009;50.070;8.232;2023-08-20T15:12:37;21.63;;;20.83;;
15816;SDS011;8009;50.070;8.232;2023-08-20T15:15:06;25.17;;;24.17;;
15816;SDS011;8009;50.070;8.232;2023-08-20T15:17:36;25.55;;;24.55;;
15816;SDS011;8009;50.070;8.232;2023-08-20T15:20:13;26.00;;;25.00;;
15816;SDS011;8009;50.070;8.232;2023-08-20T15:23:03;52.17;;;49.90;;
15816;SDS011;8009;50.070;8.232;2023-08-20T15:25:33;29.05;;;27.90;;
15816;SDS011;8009;50.070;8.232;2023-08-20T15:28:02;25.50;;;24.50;;
15816;SDS011;8009;50.070;8.232;2023-08-20T15:30:31;26.45;;;25.45;;
15816;SDS011;8009;50.070;8.232;2023-08-20T15:32:59;27.02;;;25.95;;
15816;SDS011;8009;50.070;8.232;2023-08-20T15:35:31;42.13;;;40.17;;
15816;SDS011;8009;50.070;8.232;2023-08-20T15:38:00;25.48;;;24.48;;
15816;SDS011;8009;50.070;8.232;2023-08-20T15:40:28;25.85;;;24.85;;
15816;SDS011;8009;50.070;8.232;2023-08-20T15:42:56;28.55;;;27.45;;
15816;SDS011;8009;50.070;8.232;2023-08-20T15:45:25;29.15;;;28.05;;
15816;SDS011;8009;50.070;8.232;2023-08-20T15:47:54;30.20;;;29.00;;
15816;SDS011;8009;50.070;8.232;2023-08-20T15:50:24;26.92;;;25.92;;
15816;SDS011;8009;50.070;8.232;2023-08-20T15:58:06;22.95;;;22.05;;
15816;SDS011;8009;50.070;8.232;2023-08-20T16:00:37;28.15;;;27.05;;
15816;SDS011;8009;50.070;8.232;2023-08-20T16:03:05;27.63;;;26.52;;
15816;SDS011;8009;50.070;8.232;2023-08-20T16:08:11;26.83;;;25.83;;
15816;SDS011;8009;50.070;8.232;2023-08-20T16:10:39;26.15;;;25.15;;
15816;SDS011;8009;50.070;8.232;2023-08-20T16:13:11;21.83;;;20.98;;
15816;SDS011;8009;50.070;8.232;2023-08-20T16:15:40;22.08;;;21.23;;
15816;SDS011;8009;50.070;8.232;2023-08-20T16:18:08;22.73;;;21.83;;
15816;SDS011;8009;50.070;8.232;2023-08-20T16:20:39;24.10;;;23.20;;
15816;SDS011;8009;50.070;8.232;2023-08-20T16:23:09;23.40;;;22.50;;
15816;SDS011;8009;50.070;8.232;2023-08-20T16:25:39;23.50;;;22.55;;
15816;SDS011;8009;50.070;8.232;2023-08-20T16:28:11;23.52;;;22.63;;
15816;SDS011;8009;50.070;8.232;2023-08-20T16:30:40;25.80;;;24.80;;
15816;SDS011;8009;50.070;8.232;2023-08-20T16:33:08;27.40;;;26.30;;
15816;SDS011;8009;50.070;8.232;2023-08-20T16:35:37;46.42;;;44.53;;
15816;SDS011;8009;50.070;8.232;2023-08-20T16:38:05;34.33;;;32.95;;
15816;SDS011;8009;50.070;8.232;2023-08-20T16:40:34;32.85;;;31.55;;
15816;SDS011;8009;50.070;8.232;2023-08-20T16:43:03;32.75;;;31.45;;
15816;SDS011;8009;50.070;8.232;2023-08-20T16:45:34;32.85;;;31.55;;
15816;SDS011;8009;50.070;8.232;2023-08-20T16:48:03;31.42;;;30.13;;
15816;SDS011;8009;50.070;8.232;2023-08-20T16:50:32;29.42;;;28.33;;
15816;SDS011;8009;50.070;8.232;2023-08-20T16:53:01;28.88;;;27.77;;
15816;SDS011;8009;50.070;8.232;2023-08-20T16:55:31;29.50;;;28.30;;
15816;SDS011;8009;50.070;8.232;2023-08-20T16:57:59;28.88;;;27.75;;
15816;SDS011;8009;50.070;8.232;2023-08-20T17:00:27;30.60;;;29.40;;
15816;SDS011;8009;50.070;8.232;2023-08-20T17:02:58;30.17;;;28.98;;
15816;SDS011;8009;50.070;8.232;2023-08-20T17:05:27;45.85;;;43.97;;
15816;SDS011;8009;50.070;8.232;2023-08-20T17:07:56;28.70;;;27.60;;
15816;SDS011;8009;50.070;8.232;2023-08-20T17:10:25;23.92;;;23.02;;
15816;SDS011;8009;50.070;8.232;2023-08-20T17:12:55;26.80;;;25.70;;
15816;SDS011;8009;50.070;8.232;2023-08-20T17:15:26;23.50;;;22.60;;
15816;SDS011;8009;50.070;8.232;2023-08-20T17:17:54;23.45;;;22.55;;
15816;SDS011;8009;50.070;8.232;2023-08-20T17:20:25;19.63;;;18.90;;
15816;SDS011;8009;50.070;8.232;2023-08-20T17:22:54;24.08;;;23.17;;
15816;SDS011;8009;50.070;8.232;2023-08-20T17:25:22;26.25;;;25.25;;
15816;SDS011;8009;50.070;8.232;2023-08-20T17:27:51;26.50;;;25.50;;
15816;SDS011;8009;50.070;8.232;2023-08-20T17:30:19;24.35;;;23.35;;
15816;SDS011;8009;50.070;8.232;2023-08-20T17:32:47;19.45;;;18.65;;
15816;SDS011;8009;50.070;8.232;2023-08-20T17:35:16;17.10;;;16.50;;
15816;SDS011;8009;50.070;8.232;2023-08-20T17:37:47;17.65;;;16.98;;
15816;SDS011;8009;50.070;8.232;2023-08-20T17:40:15;14.82;;;14.30;;
15816;SDS011;8009;50.070;8.232;2023-08-20T17:42:43;15.18;;;14.60;;
15816;SDS011;8009;50.070;8.232;2023-08-20T17:45:12;14.75;;;14.15;;
15816;SDS011;8009;50.070;8.232;2023-08-20T17:47:40;15.57;;;14.98;;
15816;SDS011;8009;50.070;8.232;2023-08-20T17:50:08;15.25;;;14.65;;
15816;SDS011;8009;50.070;8.232;2023-08-20T17:52:38;16.67;;;16.08;;
15816;SDS011;8009;50.070;8.232;2023-08-20T17:55:09;18.80;;;18.10;;
15816;SDS011;8009;50.070;8.232;2023-08-20T17:57:37;20.40;;;19.60;;
15816;SDS011;8009;50.070;8.232;2023-08-20T18:00:06;23.42;;;22.52;;
15816;SDS011;8009;50.070;8.232;2023-08-20T18:02:36;33.38;;;32.05;;
15816;SDS011;8009;50.070;8.232;2023-08-20T18:14:39;45.30;;;43.50;;
15816;SDS011;8009;50.070;8.232;2023-08-20T18:17:07;28.42;;;27.23;;
15816;SDS011;8009;50.070;8.232;2023-08-20T18:19:36;41.85;;;39.95;;
15816;SDS011;8009;50.070;8.232;2023-08-20T18:22:04;45.83;;;43.97;;
15816;SDS011;8009;50.070;8.232;2023-08-20T18:24:32;48.80;;;46.53;;
15816;SDS011;8009;50.070;8.232;2023-08-20T18:27:01;44.45;;;42.65;;
15816;SDS011;8009;50.070;8.232;2023-08-20T18:29:30;39.42;;;37.85;;
15816;SDS011;8009;50.070;8.232;2023-08-20T18:32:01;47.03;;;45.08;;
15816;SDS011;8009;50.070;8.232;2023-08-20T18:34:30;51.78;;;49.67;;